Victory, Kentucky
Current Conditions -  °F | °C
As of 6:53 PM on Wednesday 22 Oct 2014 (Local Time) from KLOZ Reporting Station
Overcast Overcast  
Wind Chill: 50°   Ceiling: 3200
Heat Index: 50°   Visibility: 10mi
Dew Point: 40°   Wind: 3mph
Humidity: 68%   Direction: 340°NNW
Pressure: 30.25"   Gusts: NA
Location:  37.2328°N, 84.1595°W
Report Text: KLOZ 222253Z AUTO 34003KT 10SM OVC032 10/04 A3025 RMK AO2 SLP244 T01000044
Loading
Personal Weather Stations






























Interactive Weather Map
Tropical Storm Tracking
New forecast layout! Learn more

10-Day Weather Forecast

Advertisements
Track Severe Weather on mobile